sensor_id;sensor_type;location;lat;lon;timestamp;pressure;altitude;pressure_sealevel;temperature;humidity
11041;BME280;5573;49.592;8.662;2022-12-10T00:02:08;98768.19;;;1.76;100.00
11041;BME280;5573;49.592;8.662;2022-12-10T00:04:56;98769.25;;;1.71;100.00
11041;BME280;5573;49.592;8.662;2022-12-10T00:07:44;98766.63;;;1.75;100.00
11041;BME280;5573;49.592;8.662;2022-12-10T00:10:33;98768.66;;;1.78;100.00
11041;BME280;5573;49.592;8.662;2022-12-10T00:13:21;98782.19;;;1.78;100.00
11041;BME280;5573;49.592;8.662;2022-12-10T00:16:11;98776.69;;;1.74;100.00
11041;BME280;5573;49.592;8.662;2022-12-10T00:19:00;98779.38;;;1.74;100.00
11041;BME280;5573;49.592;8.662;2022-12-10T00:21:48;98781.31;;;1.74;100.00
11041;BME280;5573;49.592;8.662;2022-12-10T00:24:36;98780.59;;;1.77;100.00
11041;BME280;5573;49.592;8.662;2022-12-10T00:27:25;98772.56;;;1.80;100.00
11041;BME280;5573;49.592;8.662;2022-12-10T00:30:14;98771.44;;;1.81;100.00
11041;BME280;5573;49.592;8.662;2022-12-10T00:33:03;98768.47;;;1.87;100.00
11041;BME280;5573;49.592;8.662;2022-12-10T00:35:51;98773.13;;;1.86;100.00
11041;BME280;5573;49.592;8.662;2022-12-10T00:38:39;98775.81;;;1.86;100.00
11041;BME280;5573;49.592;8.662;2022-12-10T00:41:30;98763.38;;;1.85;100.00
11041;BME280;5573;49.592;8.662;2022-12-10T00:44:22;98762.94;;;1.83;100.00
11041;BME280;5573;49.592;8.662;2022-12-10T00:47:09;98760.34;;;1.87;100.00
11041;BME280;5573;49.592;8.662;2022-12-10T00:49:58;98769.63;;;1.86;100.00
11041;BME280;5573;49.592;8.662;2022-12-10T00:52:45;98769.88;;;1.96;100.00
11041;BME280;5573;49.592;8.662;2022-12-10T00:55:33;98781.59;;;1.85;100.00
11041;BME280;5573;49.592;8.662;2022-12-10T00:58:22;98779.41;;;1.90;100.00
11041;BME280;5573;49.592;8.662;2022-12-10T01:01:13;98778.59;;;1.90;100.00
11041;BME280;5573;49.592;8.662;2022-12-10T01:04:06;98787.13;;;1.88;100.00
11041;BME280;5573;49.592;8.662;2022-12-10T01:06:54;98779.94;;;1.96;100.00
11041;BME280;5573;49.592;8.662;2022-12-10T01:09:42;98779.50;;;1.94;100.00
11041;BME280;5573;49.592;8.662;2022-12-10T01:12:30;98789.66;;;1.97;100.00
11041;BME280;5573;49.592;8.662;2022-12-10T01:15:18;98781.69;;;1.88;100.00
11041;BME280;5573;49.592;8.662;2022-12-10T01:18:08;98789.28;;;1.82;100.00
11041;BME280;5573;49.592;8.662;2022-12-10T01:21:00;98794.72;;;1.82;100.00
11041;BME280;5573;49.592;8.662;2022-12-10T01:23:50;98793.50;;;1.80;100.00
11041;BME280;5573;49.592;8.662;2022-12-10T01:26:38;98795.84;;;1.81;100.00
11041;BME280;5573;49.592;8.662;2022-12-10T01:29:26;98801.78;;;1.71;100.00
11041;BME280;5573;49.592;8.662;2022-12-10T01:32:14;98799.97;;;1.75;100.00
11041;BME280;5573;49.592;8.662;2022-12-10T01:35:04;98812.63;;;1.71;100.00
11041;BME280;5573;49.592;8.662;2022-12-10T01:37:52;98795.22;;;1.72;100.00
11041;BME280;5573;49.592;8.662;2022-12-10T01:40:40;98807.03;;;1.80;100.00
11041;BME280;5573;49.592;8.662;2022-12-10T01:43:48;98805.38;;;1.75;100.00
11041;BME280;5573;49.592;8.662;2022-12-10T01:46:39;98815.19;;;1.80;100.00
11041;BME280;5573;49.592;8.662;2022-12-10T01:49:34;98812.38;;;1.76;100.00
11041;BME280;5573;49.592;8.662;2022-12-10T01:52:24;98816.91;;;1.72;100.00
11041;BME280;5573;49.592;8.662;2022-12-10T01:55:37;98820.41;;;1.73;100.00
11041;BME280;5573;49.592;8.662;2022-12-10T01:58:26;98816.13;;;1.72;100.00
11041;BME280;5573;49.592;8.662;2022-12-10T02:01:23;98812.19;;;1.69;100.00
11041;BME280;5573;49.592;8.662;2022-12-10T02:04:20;98806.94;;;1.60;100.00
11041;BME280;5573;49.592;8.662;2022-12-10T02:07:14;98830.50;;;1.60;100.00
11041;BME280;5573;49.592;8.662;2022-12-10T02:10:13;98821.81;;;1.67;100.00
11041;BME280;5573;49.592;8.662;2022-12-10T02:13:10;98828.09;;;1.71;100.00
11041;BME280;5573;49.592;8.662;2022-12-10T02:16:04;98830.72;;;1.67;100.00
11041;BME280;5573;49.592;8.662;2022-12-10T02:18:57;98828.16;;;1.58;100.00
11041;BME280;5573;49.592;8.662;2022-12-10T02:21:48;98835.03;;;1.56;100.00
11041;BME280;5573;49.592;8.662;2022-12-10T02:24:37;98828.94;;;1.59;100.00
11041;BME280;5573;49.592;8.662;2022-12-10T02:27:32;98836.75;;;1.60;100.00
11041;BME280;5573;49.592;8.662;2022-12-10T02:30:25;98833.22;;;1.60;100.00
11041;BME280;5573;49.592;8.662;2022-12-10T02:33:14;98837.84;;;1.59;100.00
11041;BME280;5573;49.592;8.662;2022-12-10T02:36:05;98829.28;;;1.57;100.00
11041;BME280;5573;49.592;8.662;2022-12-10T02:38:56;98829.72;;;1.59;100.00
11041;BME280;5573;49.592;8.662;2022-12-10T02:41:49;98825.78;;;1.57;100.00
11041;BME280;5573;49.592;8.662;2022-12-10T02:44:40;98835.13;;;1.44;100.00
11041;BME280;5573;49.592;8.662;2022-12-10T02:47:31;98824.72;;;1.46;100.00
11041;BME280;5573;49.592;8.662;2022-12-10T02:50:22;98825.09;;;1.32;100.00
11041;BME280;5573;49.592;8.662;2022-12-10T02:53:11;98788.69;;;1.17;100.00
11041;BME280;5573;49.592;8.662;2022-12-10T02:56:08;98823.38;;;1.39;100.00
11041;BME280;5573;49.592;8.662;2022-12-10T02:59:10;98825.66;;;1.37;100.00
11041;BME280;5573;49.592;8.662;2022-12-10T03:02:09;98821.78;;;1.38;100.00
11041;BME280;5573;49.592;8.662;2022-12-10T03:05:03;98833.19;;;1.44;100.00
11041;BME280;5573;49.592;8.662;2022-12-10T03:07:56;98824.28;;;1.44;100.00
11041;BME280;5573;49.592;8.662;2022-12-10T03:10:52;98824.59;;;1.42;100.00
11041;BME280;5573;49.592;8.662;2022-12-10T03:13:47;98821.56;;;1.44;100.00
11041;BME280;5573;49.592;8.662;2022-12-10T03:16:39;98816.22;;;1.47;100.00
11041;BME280;5573;49.592;8.662;2022-12-10T03:19:32;98830.91;;;1.46;100.00
11041;BME280;5573;49.592;8.662;2022-12-10T03:22:23;98822.22;;;1.40;100.00
11041;BME280;5573;49.592;8.662;2022-12-10T03:25:15;98827.53;;;1.37;100.00
11041;BME280;5573;49.592;8.662;2022-12-10T03:28:06;98825.09;;;1.32;100.00
11041;BME280;5573;49.592;8.662;2022-12-10T03:30:55;98830.50;;;1.32;100.00
11041;BME280;5573;49.592;8.662;2022-12-10T03:33:45;98819.13;;;1.26;100.00
11041;BME280;5573;49.592;8.662;2022-12-10T03:36:34;98826.25;;;1.31;100.00
11041;BME280;5573;49.592;8.662;2022-12-10T03:39:25;98821.75;;;1.23;100.00
11041;BME280;5573;49.592;8.662;2022-12-10T03:42:14;98815.03;;;1.32;100.00
11041;BME280;5573;49.592;8.662;2022-12-10T03:45:03;98817.06;;;1.35;100.00
11041;BME280;5573;49.592;8.662;2022-12-10T03:47:51;98818.88;;;1.31;100.00
11041;BME280;5573;49.592;8.662;2022-12-10T03:50:39;98812.03;;;1.21;100.00
11041;BME280;5573;49.592;8.662;2022-12-10T03:53:27;98815.19;;;1.24;100.00
11041;BME280;5573;49.592;8.662;2022-12-10T03:56:17;98816.19;;;1.31;100.00
11041;BME280;5573;49.592;8.662;2022-12-10T03:59:05;98820.56;;;1.36;100.00
11041;BME280;5573;49.592;8.662;2022-12-10T04:01:53;98825.28;;;1.39;100.00
11041;BME280;5573;49.592;8.662;2022-12-10T04:04:41;98830.03;;;1.42;100.00
11041;BME280;5573;49.592;8.662;2022-12-10T04:07:29;98821.56;;;1.44;100.00
11041;BME280;5573;49.592;8.662;2022-12-10T04:10:17;98831.75;;;1.34;100.00
11041;BME280;5573;49.592;8.662;2022-12-10T04:13:07;98825.53;;;1.34;100.00
11041;BME280;5573;49.592;8.662;2022-12-10T04:16:12;98827.53;;;1.37;100.00
11041;BME280;5573;49.592;8.662;2022-12-10T04:19:17;98830.25;;;1.37;100.00
11041;BME280;5573;49.592;8.662;2022-12-10T04:22:05;98830.19;;;1.33;100.00
11041;BME280;5573;49.592;8.662;2022-12-10T04:25:11;98835.59;;;1.33;100.00
11041;BME280;5573;49.592;8.662;2022-12-10T04:28:20;98830.41;;;1.28;100.00
11041;BME280;5573;49.592;8.662;2022-12-10T04:31:08;98835.00;;;1.40;100.00
11041;BME280;5573;49.592;8.662;2022-12-10T04:33:56;98839.28;;;1.41;100.00
11041;BME280;5573;49.592;8.662;2022-12-10T04:36:45;98836.53;;;1.13;100.00
11041;BME280;5573;49.592;8.662;2022-12-10T04:39:33;98821.91;;;1.01;100.00
11041;BME280;5573;49.592;8.662;2022-12-10T04:42:22;98849.16;;;1.33;100.00
11041;BME280;5573;49.592;8.662;2022-12-10T04:45:11;98851.19;;;1.24;100.00
11041;BME280;5573;49.592;8.662;2022-12-10T04:48:00;98847.34;;;1.25;100.00
11041;BME280;5573;49.592;8.662;2022-12-10T04:50:47;98764.44;;;0.68;100.00
11041;BME280;5573;49.592;8.662;2022-12-10T04:53:35;98853.53;;;1.38;100.00
11041;BME280;5573;49.592;8.662;2022-12-10T04:56:23;98857.28;;;1.33;100.00
11041;BME280;5573;49.592;8.662;2022-12-10T04:59:12;98855.03;;;1.23;100.00
11041;BME280;5573;49.592;8.662;2022-12-10T05:02:01;98860.56;;;1.27;100.00
11041;BME280;5573;49.592;8.662;2022-12-10T05:04:49;98861.47;;;1.31;100.00
11041;BME280;5573;49.592;8.662;2022-12-10T05:07:37;98869.94;;;1.29;100.00
11041;BME280;5573;49.592;8.662;2022-12-10T05:10:25;98872.84;;;1.24;100.00
11041;BME280;5573;49.592;8.662;2022-12-10T05:13:13;98872.53;;;1.26;100.00
11041;BME280;5573;49.592;8.662;2022-12-10T05:16:01;98873.78;;;1.16;100.00
11041;BME280;5573;49.592;8.662;2022-12-10T05:18:52;98880.44;;;1.18;100.00
11041;BME280;5573;49.592;8.662;2022-12-10T05:21:40;98882.56;;;1.25;100.00
11041;BME280;5573;49.592;8.662;2022-12-10T05:24:46;98884.06;;;1.23;100.00
11041;BME280;5573;49.592;8.662;2022-12-10T05:27:34;98890.38;;;1.27;100.00
11041;BME280;5573;49.592;8.662;2022-12-10T05:30:22;98892.41;;;1.17;100.00
11041;BME280;5573;49.592;8.662;2022-12-10T05:33:10;98898.06;;;1.12;100.00
11041;BME280;5573;49.592;8.662;2022-12-10T05:36:01;98890.59;;;1.09;100.00
11041;BME280;5573;49.592;8.662;2022-12-10T05:38:51;98862.09;;;0.87;100.00
11041;BME280;5573;49.592;8.662;2022-12-10T05:41:40;98894.34;;;0.92;100.00
11041;BME280;5573;49.592;8.662;2022-12-10T05:44:30;98903.03;;;0.98;100.00
11041;BME280;5573;49.592;8.662;2022-12-10T05:47:18;98907.22;;;1.08;100.00
11041;BME280;5573;49.592;8.662;2022-12-10T05:50:06;98906.31;;;1.04;100.00
11041;BME280;5573;49.592;8.662;2022-12-10T05:52:56;98911.94;;;1.11;100.00
11041;BME280;5573;49.592;8.662;2022-12-10T05:55:44;98910.72;;;1.08;100.00
11041;BME280;5573;49.592;8.662;2022-12-10T05:58:33;98895.03;;;1.01;100.00
11041;BME280;5573;49.592;8.662;2022-12-10T06:01:24;98903.34;;;1.09;100.00
11041;BME280;5573;49.592;8.662;2022-12-10T06:04:13;98912.28;;;1.09;100.00
11041;BME280;5573;49.592;8.662;2022-12-10T06:07:01;98903.59;;;1.04;100.00
11041;BME280;5573;49.592;8.662;2022-12-10T06:09:57;98910.13;;;1.02;100.00
11041;BME280;5573;49.592;8.662;2022-12-10T06:12:45;98918.84;;;0.96;100.00
11041;BME280;5573;49.592;8.662;2022-12-10T06:15:33;98909.56;;;0.97;100.00
11041;BME280;5573;49.592;8.662;2022-12-10T06:18:21;98920.63;;;0.92;100.00
11041;BME280;5573;49.592;8.662;2022-12-10T06:21:12;98927.97;;;1.04;100.00
11041;BME280;5573;49.592;8.662;2022-12-10T06:24:00;98928.31;;;0.77;100.00
11041;BME280;5573;49.592;8.662;2022-12-10T06:26:50;98928.63;;;0.88;100.00
11041;BME280;5573;49.592;8.662;2022-12-10T06:29:42;98929.34;;;0.97;100.00
11041;BME280;5573;49.592;8.662;2022-12-10T06:32:31;98930.34;;;0.80;100.00
11041;BME280;5573;49.592;8.662;2022-12-10T06:35:19;98937.88;;;0.75;100.00
11041;BME280;5573;49.592;8.662;2022-12-10T06:38:07;98934.41;;;0.74;100.00
11041;BME280;5573;49.592;8.662;2022-12-10T06:40:55;98935.81;;;0.47;100.00
11041;BME280;5573;49.592;8.662;2022-12-10T06:43:44;98938.00;;;0.66;100.00
11041;BME280;5573;49.592;8.662;2022-12-10T06:46:32;98941.38;;;0.63;100.00
11041;BME280;5573;49.592;8.662;2022-12-10T06:49:20;98945.09;;;0.58;100.00
11041;BME280;5573;49.592;8.662;2022-12-10T06:52:08;98950.28;;;0.76;100.00
11041;BME280;5573;49.592;8.662;2022-12-10T06:54:56;98954.25;;;0.78;100.00
11041;BME280;5573;49.592;8.662;2022-12-10T06:57:44;98957.50;;;0.84;100.00
11041;BME280;5573;49.592;8.662;2022-12-10T07:00:34;98920.84;;;0.62;100.00
11041;BME280;5573;49.592;8.662;2022-12-10T07:03:21;98946.69;;;0.84;100.00
11041;BME280;5573;49.592;8.662;2022-12-10T07:05:49;98955.72;;;0.88;100.00
11041;BME280;5573;49.592;8.662;2022-12-10T07:08:17;98961.00;;;0.97;100.00
11041;BME280;5573;49.592;8.662;2022-12-10T07:10:45;98953.25;;;0.95;100.00
11041;BME280;5573;49.592;8.662;2022-12-10T07:13:13;98953.91;;;0.92;100.00
11041;BME280;5573;49.592;8.662;2022-12-10T07:15:42;98955.16;;;0.95;100.00
11041;BME280;5573;49.592;8.662;2022-12-10T07:18:10;98961.25;;;0.92;100.00
11041;BME280;5573;49.592;8.662;2022-12-10T07:20:38;98960.47;;;0.91;100.00
11041;BME280;5573;49.592;8.662;2022-12-10T07:23:05;98959.22;;;0.89;100.00
11041;BME280;5573;49.592;8.662;2022-12-10T07:25:33;98965.19;;;0.82;100.00
11041;BME280;5573;49.592;8.662;2022-12-10T07:28:01;98968.13;;;0.77;100.00
11041;BME280;5573;49.592;8.662;2022-12-10T07:30:29;98970.03;;;0.76;100.00
11041;BME280;5573;49.592;8.662;2022-12-10T07:32:58;98982.78;;;0.64;100.00
11041;BME280;5573;49.592;8.662;2022-12-10T07:35:26;98975.66;;;0.71;100.00
11041;BME280;5573;49.592;8.662;2022-12-10T07:37:54;98954.38;;;0.70;100.00
11041;BME280;5573;49.592;8.662;2022-12-10T07:40:21;98976.25;;;0.89;100.00
11041;BME280;5573;49.592;8.662;2022-12-10T07:42:49;98980.09;;;1.00;100.00
11041;BME280;5573;49.592;8.662;2022-12-10T07:45:17;98985.97;;;1.02;100.00
11041;BME280;5573;49.592;8.662;2022-12-10T07:47:45;98986.88;;;1.07;100.00
11041;BME280;5573;49.592;8.662;2022-12-10T07:50:14;98997.25;;;1.05;100.00
11041;BME280;5573;49.592;8.662;2022-12-10T07:52:42;98995.66;;;1.16;100.00
11041;BME280;5573;49.592;8.662;2022-12-10T07:55:09;98998.50;;;1.19;100.00
11041;BME280;5573;49.592;8.662;2022-12-10T07:57:37;99002.44;;;1.34;100.00
11041;BME280;5573;49.592;8.662;2022-12-10T08:00:06;99004.94;;;1.39;100.00
11041;BME280;5573;49.592;8.662;2022-12-10T08:02:40;99000.75;;;1.42;100.00
11041;BME280;5573;49.592;8.662;2022-12-10T08:05:08;99009.09;;;1.49;100.00
11041;BME280;5573;49.592;8.662;2022-12-10T08:07:38;99010.31;;;1.52;100.00
11041;BME280;5573;49.592;8.662;2022-12-10T08:10:06;99003.22;;;1.47;100.00
11041;BME280;5573;49.592;8.662;2022-12-10T08:12:34;99013.16;;;1.43;100.00
11041;BME280;5573;49.592;8.662;2022-12-10T08:15:02;99012.94;;;1.48;100.00
11041;BME280;5573;49.592;8.662;2022-12-10T08:17:30;99010.44;;;1.43;100.00
11041;BME280;5573;49.592;8.662;2022-12-10T08:19:58;99012.84;;;1.45;100.00
11041;BME280;5573;49.592;8.662;2022-12-10T08:22:25;99010.00;;;1.41;100.00
11041;BME280;5573;49.592;8.662;2022-12-10T08:24:54;99020.41;;;1.39;100.00
11041;BME280;5573;49.592;8.662;2022-12-10T08:27:22;99020.63;;;1.46;100.00
11041;BME280;5573;49.592;8.662;2022-12-10T08:29:50;99024.69;;;1.52;100.00
11041;BME280;5573;49.592;8.662;2022-12-10T08:32:17;99026.38;;;1.57;100.00
11041;BME280;5573;49.592;8.662;2022-12-10T08:34:45;99031.22;;;1.51;100.00
11041;BME280;5573;49.592;8.662;2022-12-10T08:37:13;99025.47;;;1.53;100.00
11041;BME280;5573;49.592;8.662;2022-12-10T08:39:41;99028.31;;;1.56;100.00
11041;BME280;5573;49.592;8.662;2022-12-10T08:42:10;99028.75;;;1.58;100.00
11041;BME280;5573;49.592;8.662;2022-12-10T08:44:38;99037.22;;;1.57;100.00
11041;BME280;5573;49.592;8.662;2022-12-10T08:47:07;99023.66;;;1.57;100.00
11041;BME280;5573;49.592;8.662;2022-12-10T08:49:35;99026.38;;;1.57;100.00
11041;BME280;5573;49.592;8.662;2022-12-10T08:52:03;99034.72;;;1.52;100.00
11041;BME280;5573;49.592;8.662;2022-12-10T08:54:31;99035.53;;;1.52;100.00
11041;BME280;5573;49.592;8.662;2022-12-10T08:56:58;99040.72;;;1.45;100.00
11041;BME280;5573;49.592;8.662;2022-12-10T08:59:27;99037.22;;;1.57;100.00
11041;BME280;5573;49.592;8.662;2022-12-10T09:01:55;99038.56;;;1.63;100.00
11041;BME280;5573;49.592;8.662;2022-12-10T09:04:23;99044.44;;;1.53;100.00
11041;BME280;5573;49.592;8.662;2022-12-10T09:06:51;99045.16;;;1.37;100.00
11041;BME280;5573;49.592;8.662;2022-12-10T09:09:19;99039.72;;;1.37;100.00
11041;BME280;5573;49.592;8.662;2022-12-10T09:11:46;99033.59;;;1.28;100.00
11041;BME280;5573;49.592;8.662;2022-12-10T09:14:14;99034.06;;;1.30;100.00
11041;BME280;5573;49.592;8.662;2022-12-10T09:16:43;99037.78;;;1.26;100.00
11041;BME280;5573;49.592;8.662;2022-12-10T09:19:10;99039.16;;;1.32;100.00
11041;BME280;5573;49.592;8.662;2022-12-10T09:21:45;99036.44;;;1.32;100.00
11041;BME280;5573;49.592;8.662;2022-12-10T09:24:13;99041.84;;;1.32;100.00
11041;BME280;5573;49.592;8.662;2022-12-10T09:26:41;99041.72;;;1.28;100.00
11041;BME280;5573;49.592;8.662;2022-12-10T09:29:08;99047.94;;;1.41;100.00
11041;BME280;5573;49.592;8.662;2022-12-10T09:31:36;99036.78;;;1.30;100.00
11041;BME280;5573;49.592;8.662;2022-12-10T09:34:05;99041.28;;;1.26;100.00
11041;BME280;5573;49.592;8.662;2022-12-10T09:36:33;99046.38;;;1.28;100.00
11041;BME280;5573;49.592;8.662;2022-12-10T09:39:01;99047.38;;;1.11;100.00
11041;BME280;5573;49.592;8.662;2022-12-10T09:41:51;99049.28;;;0.98;100.00
11041;BME280;5573;49.592;8.662;2022-12-10T09:44:28;99054.13;;;1.05;100.00
11041;BME280;5573;49.592;8.662;2022-12-10T09:47:00;99045.34;;;1.20;100.00
11041;BME280;5573;49.592;8.662;2022-12-10T09:49:39;98997.16;;;0.89;100.00
11041;BME280;5573;49.592;8.662;2022-12-10T09:52:12;99048.75;;;1.29;100.00
11041;BME280;5573;49.592;8.662;2022-12-10T09:54:43;99030.00;;;1.12;100.00
11041;BME280;5573;49.592;8.662;2022-12-10T09:57:19;99044.00;;;1.38;100.00
11041;BME280;5573;49.592;8.662;2022-12-10T09:59:49;99050.22;;;1.27;100.00
11041;BME280;5573;49.592;8.662;2022-12-10T10:02:22;99045.59;;;1.39;100.00
11041;BME280;5573;49.592;8.662;2022-12-10T10:04:56;99046.59;;;1.47;100.00
11041;BME280;5573;49.592;8.662;2022-12-10T10:07:30;99047.84;;;1.50;100.00
11041;BME280;5573;49.592;8.662;2022-12-10T10:10:02;99036.78;;;1.55;100.00
11041;BME280;5573;49.592;8.662;2022-12-10T10:12:31;99045.03;;;1.58;100.00
11041;BME280;5573;49.592;8.662;2022-12-10T10:15:10;99053.94;;;1.71;100.00
11041;BME280;5573;49.592;8.662;2022-12-10T10:17:39;99056.50;;;1.80;100.00
11041;BME280;5573;49.592;8.662;2022-12-10T10:20:13;99015.59;;;1.85;100.00
11041;BME280;5573;49.592;8.662;2022-12-10T10:22:41;99055.72;;;2.32;100.00
11041;BME280;5573;49.592;8.662;2022-12-10T10:25:13;99053.38;;;2.47;100.00
11041;BME280;5573;49.592;8.662;2022-12-10T10:27:41;99052.28;;;2.63;100.00
11041;BME280;5573;49.592;8.662;2022-12-10T10:30:15;99048.50;;;2.52;100.00
11041;BME280;5573;49.592;8.662;2022-12-10T10:32:46;99054.06;;;2.72;100.00
11041;BME280;5573;49.592;8.662;2022-12-10T10:35:26;99048.84;;;2.79;100.00
11041;BME280;5573;49.592;8.662;2022-12-10T10:37:58;99055.75;;;2.76;100.00
11041;BME280;5573;49.592;8.662;2022-12-10T10:40:29;99061.19;;;2.92;100.00
11041;BME280;5573;49.592;8.662;2022-12-10T10:42:58;99045.94;;;3.03;100.00
11041;BME280;5573;49.592;8.662;2022-12-10T10:45:42;99047.72;;;3.12;100.00
11041;BME280;5573;49.592;8.662;2022-12-10T10:48:12;99057.81;;;3.27;100.00
11041;BME280;5573;49.592;8.662;2022-12-10T10:50:43;99062.69;;;3.05;100.00
11041;BME280;5573;49.592;8.662;2022-12-10T10:53:29;99053.50;;;3.26;100.00
11041;BME280;5573;49.592;8.662;2022-12-10T10:56:04;99066.16;;;3.18;100.00
11041;BME280;5573;49.592;8.662;2022-12-10T10:58:34;99061.13;;;3.36;100.00
11041;BME280;5573;49.592;8.662;2022-12-10T11:01:04;99058.06;;;3.38;100.00
11041;BME280;5573;49.592;8.662;2022-12-10T11:03:34;99063.31;;;3.46;100.00
11041;BME280;5573;49.592;8.662;2022-12-10T11:06:07;99063.03;;;3.67;100.00
11041;BME280;5573;49.592;8.662;2022-12-10T11:08:37;99060.44;;;3.91;100.00
11041;BME280;5573;49.592;8.662;2022-12-10T11:11:11;99061.75;;;3.97;100.00
11041;BME280;5573;49.592;8.662;2022-12-10T11:13:39;99054.69;;;4.12;96.50
11041;BME280;5573;49.592;8.662;2022-12-10T11:16:16;99065.72;;;4.19;98.33
11041;BME280;5573;49.592;8.662;2022-12-10T11:18:54;99067.88;;;4.10;98.55
11041;BME280;5573;49.592;8.662;2022-12-10T11:21:24;99071.41;;;3.94;96.95
11041;BME280;5573;49.592;8.662;2022-12-10T11:23:53;99070.56;;;3.90;100.00
11041;BME280;5573;49.592;8.662;2022-12-10T11:26:32;99081.59;;;3.81;98.17
11041;BME280;5573;49.592;8.662;2022-12-10T11:29:22;99045.66;;;3.56;97.95
11041;BME280;5573;49.592;8.662;2022-12-10T11:32:00;99079.56;;;3.59;99.85
11041;BME280;5573;49.592;8.662;2022-12-10T11:34:47;99082.91;;;3.52;100.00
11041;BME280;5573;49.592;8.662;2022-12-10T11:37:27;99072.34;;;3.35;100.00
11041;BME280;5573;49.592;8.662;2022-12-10T11:40:24;99076.47;;;3.29;100.00
11041;BME280;5573;49.592;8.662;2022-12-10T11:43:04;99078.84;;;3.30;100.00
11041;BME280;5573;49.592;8.662;2022-12-10T11:45:44;99092.78;;;3.13;100.00
11041;BME280;5573;49.592;8.662;2022-12-10T11:48:26;99089.28;;;3.12;100.00
11041;BME280;5573;49.592;8.662;2022-12-10T11:51:04;99088.75;;;3.07;100.00
11041;BME280;5573;49.592;8.662;2022-12-10T11:53:50;99088.31;;;3.04;100.00
11041;BME280;5573;49.592;8.662;2022-12-10T11:56:24;99087.09;;;3.18;100.00
11041;BME280;5573;49.592;8.662;2022-12-10T11:58:58;99085.97;;;3.19;100.00
11041;BME280;5573;49.592;8.662;2022-12-10T12:01:48;99080.06;;;3.33;100.00
11041;BME280;5573;49.592;8.662;2022-12-10T12:04:26;99091.47;;;3.38;100.00
11041;BME280;5573;49.592;8.662;2022-12-10T12:07:07;99078.84;;;3.30;100.00
11041;BME280;5573;49.592;8.662;2022-12-10T12:09:48;99082.88;;;3.36;100.00
11041;BME280;5573;49.592;8.662;2022-12-10T12:12:27;99088.47;;;3.12;100.00
11041;BME280;5573;49.592;8.662;2022-12-10T12:15:00;99081.91;;;3.13;100.00
11041;BME280;5573;49.592;8.662;2022-12-10T12:17:32;99097.50;;;3.16;100.00
11041;BME280;5573;49.592;8.662;2022-12-10T12:20:05;99110.50;;;3.22;100.00
11041;BME280;5573;49.592;8.662;2022-12-10T12:22:44;99107.06;;;3.10;100.00
11041;BME280;5573;49.592;8.662;2022-12-10T12:25:21;99103.16;;;3.23;100.00
11041;BME280;5573;49.592;8.662;2022-12-10T12:27:53;99110.34;;;3.31;100.00
11041;BME280;5573;49.592;8.662;2022-12-10T12:30:23;99098.41;;;3.36;100.00
11041;BME280;5573;49.592;8.662;2022-12-10T12:32:54;99093.31;;;3.34;99.98
11041;BME280;5573;49.592;8.662;2022-12-10T12:35:30;99092.28;;;3.55;99.81
11041;BME280;5573;49.592;8.662;2022-12-10T12:38:05;99100.97;;;3.44;100.00
11041;BME280;5573;49.592;8.662;2022-12-10T12:40:40;99103.06;;;3.35;100.00
11041;BME280;5573;49.592;8.662;2022-12-10T12:43:14;99106.56;;;3.36;100.00
11041;BME280;5573;49.592;8.662;2022-12-10T12:45:45;99108.16;;;3.53;100.00
11041;BME280;5573;49.592;8.662;2022-12-10T12:48:19;99101.19;;;3.39;97.50
11041;BME280;5573;49.592;8.662;2022-12-10T12:50:53;99101.66;;;3.25;100.00
11041;BME280;5573;49.592;8.662;2022-12-10T12:53:23;99105.22;;;3.14;100.00
11041;BME280;5573;49.592;8.662;2022-12-10T12:56:05;99103.81;;;3.04;100.00
11041;BME280;5573;49.592;8.662;2022-12-10T12:58:39;99103.88;;;2.92;100.00
11041;BME280;5573;49.592;8.662;2022-12-10T13:01:17;99111.31;;;2.79;100.00
11041;BME280;5573;49.592;8.662;2022-12-10T13:03:48;99109.03;;;2.81;100.00
11041;BME280;5573;49.592;8.662;2022-12-10T13:06:22;99111.47;;;2.70;100.00
11041;BME280;5573;49.592;8.662;2022-12-10T13:08:56;99107.44;;;2.80;100.00
11041;BME280;5573;49.592;8.662;2022-12-10T13:11:34;99105.66;;;2.72;100.00
11041;BME280;5573;49.592;8.662;2022-12-10T13:14:31;99114.75;;;2.63;100.00
11041;BME280;5573;49.592;8.662;2022-12-10T13:17:05;99116.97;;;2.46;100.00
11041;BME280;5573;49.592;8.662;2022-12-10T13:19:35;99117.44;;;2.35;100.00
11041;BME280;5573;49.592;8.662;2022-12-10T13:22:08;99124.69;;;2.31;100.00
11041;BME280;5573;49.592;8.662;2022-12-10T13:24:46;99127.97;;;2.37;100.00
11041;BME280;5573;49.592;8.662;2022-12-10T13:27:17;99116.53;;;2.43;100.00
11041;BME280;5573;49.592;8.662;2022-12-10T13:29:51;99123.84;;;2.55;100.00
11041;BME280;5573;49.592;8.662;2022-12-10T13:32:20;99126.31;;;2.60;100.00
11041;BME280;5573;49.592;8.662;2022-12-10T13:35:22;99126.94;;;2.70;100.00
11041;BME280;5573;49.592;8.662;2022-12-10T13:37:56;99128.13;;;2.84;100.00
11041;BME280;5573;49.592;8.662;2022-12-10T13:40:26;99136.16;;;2.93;100.00
11041;BME280;5573;49.592;8.662;2022-12-10T13:43:27;99138.25;;;3.00;100.00
11041;BME280;5573;49.592;8.662;2022-12-10T13:46:30;99142.66;;;3.20;100.00
11041;BME280;5573;49.592;8.662;2022-12-10T13:49:00;99141.47;;;3.34;100.00
11041;BME280;5573;49.592;8.662;2022-12-10T13:51:42;99143.25;;;3.42;100.00
11041;BME280;5573;49.592;8.662;2022-12-10T13:54:40;99152.06;;;3.39;99.24
11041;BME280;5573;49.592;8.662;2022-12-10T13:57:23;99159.19;;;3.43;99.13
11041;BME280;5573;49.592;8.662;2022-12-10T14:00:01;99149.78;;;3.25;96.96
11041;BME280;5573;49.592;8.662;2022-12-10T14:03:04;99156.56;;;3.47;97.95
11041;BME280;5573;49.592;8.662;2022-12-10T14:05:44;99165.88;;;3.46;100.00
11041;BME280;5573;49.592;8.662;2022-12-10T14:08:18;99172.00;;;3.43;99.16
11041;BME280;5573;49.592;8.662;2022-12-10T14:10:47;99142.97;;;3.31;96.62
11041;BME280;5573;49.592;8.662;2022-12-10T14:13:18;99174.19;;;3.37;98.42
11041;BME280;5573;49.592;8.662;2022-12-10T14:15:53;99173.38;;;3.37;99.56
11041;BME280;5573;49.592;8.662;2022-12-10T14:18:22;99177.69;;;3.54;98.16
11041;BME280;5573;49.592;8.662;2022-12-10T14:20:52;99177.00;;;3.57;95.46
11041;BME280;5573;49.592;8.662;2022-12-10T14:23:24;99183.41;;;3.49;99.13
11041;BME280;5573;49.592;8.662;2022-12-10T14:26:13;99195.16;;;3.09;97.73
11041;BME280;5573;49.592;8.662;2022-12-10T14:28:43;99188.88;;;3.20;100.00